メインページ
METAR-TAF:

METAR-TAF

空港 :

アデレード空港

アデレード, オーストラリア

緯度: 34-56S, 経度: 138-31E, 海抜: 6m

現時点の気象観測

当レポートは42分前の13:00(UTC)に作成
の風 5kt
気温 11°C
湿度 62%
気圧 1025 hPa
視程10km以上
高度35000ftの千切れ雲あり

METAR: YPAD 241300Z 09005KT CAVOK 11/04 Q1025 BKN350

時間: 23:12 (13:42 UTC)

予報

当レポートは2時間39分前の11:03(UTC)に作成
予報は24日の 12時(UTC)から 25日の 18時(UTC)まで有効
北東の風 5kt
視程10km以上
1,500メートル以下は雲なし、積乱雲なし
25日の 0300時(UTC)から
北西の風 8kt
視程10km以上
1,500メートル以下は雲なし、積乱雲なし
25日の 0500時(UTC)から
南西の風 8kt
視程10km以上
1,500メートル以下は雲なし、積乱雲なし
25日の 0900時(UTC)から
南東の風 6kt
視程10km以上
1,500メートル以下は雲なし、積乱雲なし
25日の 1200時(UTC)から
北東の風 5kt
視程10km以上
1,500メートル以下は雲なし、積乱雲なし

TAF: YPAD 241103Z 2412/2518 04005KT CAVOK FM250300 31008KT CAVOK FM250500 23008KT CAVOK FM250900 13006KT CAVOK FM251200 04005KT CAVOK

4,000以上の空港の気象観測と天気予報(METAR報とTAF報)

利用可能な観測所は地図上に黄色い丸と赤い丸で示す。

丸の上にカーソルを重ねると観測所名を参照できる。

次にクリックすると気象観測と天気予報を参照できる。

マップの切り替え:黒色「×」印の緑ボタンをクリックして拡大、「-」印の緑ボタンをクリックして縮小、緑色の三角印をクリックして隣りの地図に切り替え


METAR-TAF: